Terminal Aerodrome Forecast
Issued by NWS Charleston, WV

Current Version | Previous Version | Graphics & Text | Print | Product List | Glossary On
Versions: 1 2 3 4 5 6 7 8 9 10 11 12 13 14 15 16 17 18 19 20 21
086
FTUS41 KRLX 130331 AAB
TAFHTS
TAF AMD
KHTS 130331Z 1304/1324 30010G18KT P6SM BKN050 OVC070
      TEMPO 1304/1305 30015G25KT 1SM -SHSN BKN015 OVC030
     FM131700 31009KT P6SM BKN050
     FM132200 30008KT P6SM SCT045=

USA.gov is the U.S. government's official web portal to all federal, state and local government web resources and services.